sensor_id;sensor_type;location;lat;lon;timestamp;temperature;humidity
15426;DHT22;7812;50.072;7.036;2023-08-21T00:01:40;19.60;99.90
15426;DHT22;7812;50.072;7.036;2023-08-21T00:04:07;19.70;99.90
15426;DHT22;7812;50.072;7.036;2023-08-21T00:06:33;19.70;99.90
15426;DHT22;7812;50.072;7.036;2023-08-21T00:09:00;19.70;99.90
15426;DHT22;7812;50.072;7.036;2023-08-21T00:11:25;19.70;99.90
15426;DHT22;7812;50.072;7.036;2023-08-21T00:13:51;19.70;99.90
15426;DHT22;7812;50.072;7.036;2023-08-21T00:16:17;19.70;99.90
15426;DHT22;7812;50.072;7.036;2023-08-21T00:18:43;19.70;99.90
15426;DHT22;7812;50.072;7.036;2023-08-21T00:21:08;19.70;99.90
15426;DHT22;7812;50.072;7.036;2023-08-21T00:23:34;19.70;99.90
15426;DHT22;7812;50.072;7.036;2023-08-21T00:26:00;19.70;99.90
15426;DHT22;7812;50.072;7.036;2023-08-21T00:28:26;19.70;99.90
15426;DHT22;7812;50.072;7.036;2023-08-21T00:30:52;19.70;99.90
15426;DHT22;7812;50.072;7.036;2023-08-21T00:33:25;19.60;99.90
15426;DHT22;7812;50.072;7.036;2023-08-21T00:35:50;19.70;99.90
15426;DHT22;7812;50.072;7.036;2023-08-21T00:38:16;19.70;99.90
15426;DHT22;7812;50.072;7.036;2023-08-21T00:40:42;19.70;99.90
15426;DHT22;7812;50.072;7.036;2023-08-21T00:43:08;19.80;99.90
15426;DHT22;7812;50.072;7.036;2023-08-21T00:45:34;19.80;99.90
15426;DHT22;7812;50.072;7.036;2023-08-21T00:48:00;19.80;99.90
15426;DHT22;7812;50.072;7.036;2023-08-21T00:50:25;19.80;99.90
15426;DHT22;7812;50.072;7.036;2023-08-21T00:52:51;19.80;99.90
15426;DHT22;7812;50.072;7.036;2023-08-21T00:55:17;19.80;99.90
15426;DHT22;7812;50.072;7.036;2023-08-21T00:57:43;19.70;99.90
15426;DHT22;7812;50.072;7.036;2023-08-21T01:00:10;19.60;99.90
15426;DHT22;7812;50.072;7.036;2023-08-21T01:02:36;19.60;99.90
15426;DHT22;7812;50.072;7.036;2023-08-21T01:05:02;19.60;99.90
15426;DHT22;7812;50.072;7.036;2023-08-21T01:07:28;19.60;99.90
15426;DHT22;7812;50.072;7.036;2023-08-21T01:10:09;19.50;99.90
15426;DHT22;7812;50.072;7.036;2023-08-21T01:12:38;19.40;99.90
15426;DHT22;7812;50.072;7.036;2023-08-21T01:15:07;19.50;99.90
15426;DHT22;7812;50.072;7.036;2023-08-21T01:17:36;19.50;99.90
15426;DHT22;7812;50.072;7.036;2023-08-21T01:20:03;19.40;99.90
15426;DHT22;7812;50.072;7.036;2023-08-21T01:22:37;19.40;99.90
15426;DHT22;7812;50.072;7.036;2023-08-21T01:25:04;19.40;99.90
15426;DHT22;7812;50.072;7.036;2023-08-21T01:27:31;19.40;99.90
15426;DHT22;7812;50.072;7.036;2023-08-21T01:29:57;19.40;99.90
15426;DHT22;7812;50.072;7.036;2023-08-21T01:35:13;19.40;99.90
15426;DHT22;7812;50.072;7.036;2023-08-21T01:37:38;19.50;99.90
15426;DHT22;7812;50.072;7.036;2023-08-21T01:40:05;19.40;99.90
15426;DHT22;7812;50.072;7.036;2023-08-21T01:42:31;19.40;99.90
15426;DHT22;7812;50.072;7.036;2023-08-21T01:44:57;19.40;99.90
15426;DHT22;7812;50.072;7.036;2023-08-21T01:47:22;19.30;99.90
15426;DHT22;7812;50.072;7.036;2023-08-21T01:49:48;19.30;99.90
15426;DHT22;7812;50.072;7.036;2023-08-21T01:52:18;19.30;99.90
15426;DHT22;7812;50.072;7.036;2023-08-21T01:54:43;19.20;99.90
15426;DHT22;7812;50.072;7.036;2023-08-21T01:57:09;19.20;99.90
15426;DHT22;7812;50.072;7.036;2023-08-21T01:59:35;19.20;99.90
15426;DHT22;7812;50.072;7.036;2023-08-21T02:02:00;19.20;99.90
15426;DHT22;7812;50.072;7.036;2023-08-21T02:04:26;19.20;99.90
15426;DHT22;7812;50.072;7.036;2023-08-21T02:06:52;19.20;99.90
15426;DHT22;7812;50.072;7.036;2023-08-21T02:09:17;19.20;99.90
15426;DHT22;7812;50.072;7.036;2023-08-21T02:11:43;19.10;99.90
15426;DHT22;7812;50.072;7.036;2023-08-21T02:14:09;19.10;99.90
15426;DHT22;7812;50.072;7.036;2023-08-21T02:16:34;19.10;99.90
15426;DHT22;7812;50.072;7.036;2023-08-21T02:19:00;19.20;99.90
15426;DHT22;7812;50.072;7.036;2023-08-21T02:21:26;19.20;99.90
15426;DHT22;7812;50.072;7.036;2023-08-21T02:23:51;19.20;99.90
15426;DHT22;7812;50.072;7.036;2023-08-21T02:26:17;19.20;99.90
15426;DHT22;7812;50.072;7.036;2023-08-21T02:28:43;19.20;99.90
15426;DHT22;7812;50.072;7.036;2023-08-21T02:31:12;19.20;99.90
15426;DHT22;7812;50.072;7.036;2023-08-21T02:33:38;19.20;99.90
15426;DHT22;7812;50.072;7.036;2023-08-21T02:36:04;19.10;99.90
15426;DHT22;7812;50.072;7.036;2023-08-21T02:38:30;19.10;99.90
15426;DHT22;7812;50.072;7.036;2023-08-21T02:40:55;19.00;99.90
15426;DHT22;7812;50.072;7.036;2023-08-21T02:43:21;19.00;99.90
15426;DHT22;7812;50.072;7.036;2023-08-21T02:45:47;18.90;99.90
15426;DHT22;7812;50.072;7.036;2023-08-21T02:48:13;19.00;99.90
15426;DHT22;7812;50.072;7.036;2023-08-21T02:50:38;19.00;99.90
15426;DHT22;7812;50.072;7.036;2023-08-21T02:53:04;19.00;99.90
15426;DHT22;7812;50.072;7.036;2023-08-21T02:55:30;19.00;99.90
15426;DHT22;7812;50.072;7.036;2023-08-21T02:57:55;19.00;99.90
15426;DHT22;7812;50.072;7.036;2023-08-21T03:00:21;18.90;99.90
15426;DHT22;7812;50.072;7.036;2023-08-21T03:02:47;18.90;99.90
15426;DHT22;7812;50.072;7.036;2023-08-21T03:05:12;18.90;99.90
15426;DHT22;7812;50.072;7.036;2023-08-21T03:07:39;18.90;99.90
15426;DHT22;7812;50.072;7.036;2023-08-21T03:10:06;18.90;99.90
15426;DHT22;7812;50.072;7.036;2023-08-21T03:12:33;18.80;99.90
15426;DHT22;7812;50.072;7.036;2023-08-21T03:14:58;18.80;99.90
15426;DHT22;7812;50.072;7.036;2023-08-21T03:17:24;18.80;99.90
15426;DHT22;7812;50.072;7.036;2023-08-21T03:19:50;18.80;99.90
15426;DHT22;7812;50.072;7.036;2023-08-21T03:22:16;18.80;99.90
15426;DHT22;7812;50.072;7.036;2023-08-21T03:24:42;18.80;99.90
15426;DHT22;7812;50.072;7.036;2023-08-21T03:27:07;18.80;99.90
15426;DHT22;7812;50.072;7.036;2023-08-21T03:29:33;18.80;99.90
15426;DHT22;7812;50.072;7.036;2023-08-21T03:31:59;18.90;99.90
15426;DHT22;7812;50.072;7.036;2023-08-21T03:34:24;18.90;99.90
15426;DHT22;7812;50.072;7.036;2023-08-21T03:36:50;18.80;99.90
15426;DHT22;7812;50.072;7.036;2023-08-21T03:39:16;18.90;99.90
15426;DHT22;7812;50.072;7.036;2023-08-21T03:41:42;18.90;99.90
15426;DHT22;7812;50.072;7.036;2023-08-21T03:44:08;18.90;99.90
15426;DHT22;7812;50.072;7.036;2023-08-21T03:46:34;18.80;99.90
15426;DHT22;7812;50.072;7.036;2023-08-21T03:49:00;18.80;99.90
15426;DHT22;7812;50.072;7.036;2023-08-21T03:51:25;18.70;99.90
15426;DHT22;7812;50.072;7.036;2023-08-21T03:53:51;18.80;99.90
15426;DHT22;7812;50.072;7.036;2023-08-21T03:56:16;18.80;99.90
15426;DHT22;7812;50.072;7.036;2023-08-21T03:58:42;18.90;99.90
15426;DHT22;7812;50.072;7.036;2023-08-21T04:01:08;18.90;99.90
15426;DHT22;7812;50.072;7.036;2023-08-21T04:03:33;18.90;99.90
15426;DHT22;7812;50.072;7.036;2023-08-21T04:05:59;18.90;99.90
15426;DHT22;7812;50.072;7.036;2023-08-21T04:08:25;18.80;99.90
15426;DHT22;7812;50.072;7.036;2023-08-21T04:10:51;18.80;99.90
15426;DHT22;7812;50.072;7.036;2023-08-21T04:13:19;18.80;99.90
15426;DHT22;7812;50.072;7.036;2023-08-21T04:15:45;18.70;99.90
15426;DHT22;7812;50.072;7.036;2023-08-21T04:18:11;18.70;99.90
15426;DHT22;7812;50.072;7.036;2023-08-21T04:20:37;18.70;99.90
15426;DHT22;7812;50.072;7.036;2023-08-21T04:23:03;18.70;99.90
15426;DHT22;7812;50.072;7.036;2023-08-21T04:25:29;18.70;99.90
15426;DHT22;7812;50.072;7.036;2023-08-21T04:27:55;18.70;99.90
15426;DHT22;7812;50.072;7.036;2023-08-21T04:30:20;18.60;99.90
15426;DHT22;7812;50.072;7.036;2023-08-21T04:32:47;18.60;99.90
15426;DHT22;7812;50.072;7.036;2023-08-21T04:35:13;18.60;99.90
15426;DHT22;7812;50.072;7.036;2023-08-21T04:37:43;18.60;99.90
15426;DHT22;7812;50.072;7.036;2023-08-21T04:40:10;18.60;99.90
15426;DHT22;7812;50.072;7.036;2023-08-21T04:42:36;18.70;99.90
15426;DHT22;7812;50.072;7.036;2023-08-21T04:45:02;18.70;99.90
15426;DHT22;7812;50.072;7.036;2023-08-21T04:47:28;18.70;99.90
15426;DHT22;7812;50.072;7.036;2023-08-21T04:49:55;18.70;99.90
15426;DHT22;7812;50.072;7.036;2023-08-21T04:52:22;18.70;99.90
15426;DHT22;7812;50.072;7.036;2023-08-21T04:54:48;18.80;99.90
15426;DHT22;7812;50.072;7.036;2023-08-21T04:57:14;18.70;99.90
15426;DHT22;7812;50.072;7.036;2023-08-21T04:59:39;18.80;99.90
15426;DHT22;7812;50.072;7.036;2023-08-21T05:02:05;18.80;99.90
15426;DHT22;7812;50.072;7.036;2023-08-21T05:04:31;18.80;99.90
15426;DHT22;7812;50.072;7.036;2023-08-21T05:06:57;18.90;99.90
15426;DHT22;7812;50.072;7.036;2023-08-21T05:09:23;19.00;99.90
15426;DHT22;7812;50.072;7.036;2023-08-21T05:11:48;19.00;99.90
15426;DHT22;7812;50.072;7.036;2023-08-21T05:14:14;19.10;99.90
15426;DHT22;7812;50.072;7.036;2023-08-21T05:16:40;19.10;99.90
15426;DHT22;7812;50.072;7.036;2023-08-21T05:19:06;19.10;99.90
15426;DHT22;7812;50.072;7.036;2023-08-21T05:21:32;19.20;99.90
15426;DHT22;7812;50.072;7.036;2023-08-21T05:23:58;19.20;99.90
15426;DHT22;7812;50.072;7.036;2023-08-21T05:26:23;19.20;99.90
15426;DHT22;7812;50.072;7.036;2023-08-21T05:28:50;19.20;99.90
15426;DHT22;7812;50.072;7.036;2023-08-21T05:31:16;19.30;99.90
15426;DHT22;7812;50.072;7.036;2023-08-21T05:33:41;19.30;99.90
15426;DHT22;7812;50.072;7.036;2023-08-21T05:36:07;19.40;99.90
15426;DHT22;7812;50.072;7.036;2023-08-21T05:38:33;19.40;99.90
15426;DHT22;7812;50.072;7.036;2023-08-21T05:40:59;19.50;99.90
15426;DHT22;7812;50.072;7.036;2023-08-21T05:43:26;19.50;99.90
15426;DHT22;7812;50.072;7.036;2023-08-21T05:45:52;19.60;99.90
15426;DHT22;7812;50.072;7.036;2023-08-21T05:48:18;19.70;99.90
15426;DHT22;7812;50.072;7.036;2023-08-21T05:50:50;19.90;99.90
15426;DHT22;7812;50.072;7.036;2023-08-21T05:53:16;19.90;99.90
15426;DHT22;7812;50.072;7.036;2023-08-21T05:55:42;20.00;99.90
15426;DHT22;7812;50.072;7.036;2023-08-21T05:58:08;20.00;99.90
15426;DHT22;7812;50.072;7.036;2023-08-21T06:00:34;20.10;99.90
15426;DHT22;7812;50.072;7.036;2023-08-21T06:03:00;20.30;99.90
15426;DHT22;7812;50.072;7.036;2023-08-21T06:05:26;20.40;99.90
15426;DHT22;7812;50.072;7.036;2023-08-21T06:07:51;20.70;99.90
15426;DHT22;7812;50.072;7.036;2023-08-21T06:10:17;21.00;99.90
15426;DHT22;7812;50.072;7.036;2023-08-21T06:12:43;21.10;99.90
15426;DHT22;7812;50.072;7.036;2023-08-21T06:15:09;21.10;99.90
15426;DHT22;7812;50.072;7.036;2023-08-21T06:17:36;21.00;99.90
15426;DHT22;7812;50.072;7.036;2023-08-21T06:20:06;21.20;99.90
15426;DHT22;7812;50.072;7.036;2023-08-21T06:22:34;21.20;99.90
15426;DHT22;7812;50.072;7.036;2023-08-21T06:24:59;21.40;99.90
15426;DHT22;7812;50.072;7.036;2023-08-21T06:27:25;22.20;99.90
15426;DHT22;7812;50.072;7.036;2023-08-21T06:29:51;23.40;99.90
15426;DHT22;7812;50.072;7.036;2023-08-21T06:32:17;24.70;99.90
15426;DHT22;7812;50.072;7.036;2023-08-21T06:34:42;25.80;99.90
15426;DHT22;7812;50.072;7.036;2023-08-21T06:37:08;26.40;99.90
15426;DHT22;7812;50.072;7.036;2023-08-21T06:39:34;27.00;99.90
15426;DHT22;7812;50.072;7.036;2023-08-21T06:42:00;27.50;99.90
15426;DHT22;7812;50.072;7.036;2023-08-21T06:44:26;28.10;99.90
15426;DHT22;7812;50.072;7.036;2023-08-21T06:46:52;27.70;99.90
15426;DHT22;7812;50.072;7.036;2023-08-21T06:49:18;27.90;99.90
15426;DHT22;7812;50.072;7.036;2023-08-21T06:51:44;28.40;99.90
15426;DHT22;7812;50.072;7.036;2023-08-21T06:54:09;29.20;99.90
15426;DHT22;7812;50.072;7.036;2023-08-21T06:56:35;29.60;99.90
15426;DHT22;7812;50.072;7.036;2023-08-21T06:59:01;30.50;99.90
15426;DHT22;7812;50.072;7.036;2023-08-21T07:01:27;31.20;99.90
15426;DHT22;7812;50.072;7.036;2023-08-21T07:03:53;30.90;99.90
15426;DHT22;7812;50.072;7.036;2023-08-21T07:06:19;31.10;99.90
15426;DHT22;7812;50.072;7.036;2023-08-21T07:08:45;31.70;99.90
15426;DHT22;7812;50.072;7.036;2023-08-21T07:11:11;32.30;99.90
15426;DHT22;7812;50.072;7.036;2023-08-21T07:13:38;32.60;99.90
15426;DHT22;7812;50.072;7.036;2023-08-21T07:16:04;33.10;99.90
15426;DHT22;7812;50.072;7.036;2023-08-21T07:18:32;33.80;99.90
15426;DHT22;7812;50.072;7.036;2023-08-21T07:20:59;34.20;99.90
15426;DHT22;7812;50.072;7.036;2023-08-21T07:23:25;34.20;99.90
15426;DHT22;7812;50.072;7.036;2023-08-21T07:25:51;32.60;99.90
15426;DHT22;7812;50.072;7.036;2023-08-21T07:28:16;32.10;99.90
15426;DHT22;7812;50.072;7.036;2023-08-21T07:30:42;32.00;99.90
15426;DHT22;7812;50.072;7.036;2023-08-21T07:33:08;32.40;99.90
15426;DHT22;7812;50.072;7.036;2023-08-21T07:35:34;31.80;99.90
15426;DHT22;7812;50.072;7.036;2023-08-21T07:38:00;31.40;99.90
15426;DHT22;7812;50.072;7.036;2023-08-21T07:40:25;31.00;99.90
15426;DHT22;7812;50.072;7.036;2023-08-21T07:42:51;29.60;99.90
15426;DHT22;7812;50.072;7.036;2023-08-21T07:45:17;30.10;99.90
15426;DHT22;7812;50.072;7.036;2023-08-21T07:47:42;29.80;99.90
15426;DHT22;7812;50.072;7.036;2023-08-21T07:50:09;31.40;99.90
15426;DHT22;7812;50.072;7.036;2023-08-21T07:52:35;32.40;99.90
15426;DHT22;7812;50.072;7.036;2023-08-21T07:55:01;34.00;99.90
15426;DHT22;7812;50.072;7.036;2023-08-21T07:57:28;34.90;99.90
15426;DHT22;7812;50.072;7.036;2023-08-21T07:59:54;35.10;99.90
15426;DHT22;7812;50.072;7.036;2023-08-21T08:02:20;35.80;99.90
15426;DHT22;7812;50.072;7.036;2023-08-21T08:04:46;36.40;99.90
15426;DHT22;7812;50.072;7.036;2023-08-21T08:07:12;35.20;99.90
15426;DHT22;7812;50.072;7.036;2023-08-21T08:09:37;35.70;99.90
15426;DHT22;7812;50.072;7.036;2023-08-21T08:12:03;36.40;99.90
15426;DHT22;7812;50.072;7.036;2023-08-21T08:14:29;37.20;99.90
15426;DHT22;7812;50.072;7.036;2023-08-21T08:16:55;38.20;99.90
15426;DHT22;7812;50.072;7.036;2023-08-21T08:19:21;38.50;99.90
15426;DHT22;7812;50.072;7.036;2023-08-21T08:21:46;37.90;99.90
15426;DHT22;7812;50.072;7.036;2023-08-21T08:24:12;37.20;99.90
15426;DHT22;7812;50.072;7.036;2023-08-21T08:26:38;37.10;99.90
15426;DHT22;7812;50.072;7.036;2023-08-21T08:29:04;36.80;99.90
15426;DHT22;7812;50.072;7.036;2023-08-21T08:31:30;37.00;99.90
15426;DHT22;7812;50.072;7.036;2023-08-21T08:33:56;38.50;99.90
15426;DHT22;7812;50.072;7.036;2023-08-21T08:36:22;39.60;99.90
15426;DHT22;7812;50.072;7.036;2023-08-21T08:38:48;39.10;99.90
15426;DHT22;7812;50.072;7.036;2023-08-21T08:41:27;38.80;99.90
15426;DHT22;7812;50.072;7.036;2023-08-21T08:43:59;40.00;99.90
15426;DHT22;7812;50.072;7.036;2023-08-21T08:46:29;40.40;99.90
15426;DHT22;7812;50.072;7.036;2023-08-21T08:48:55;41.50;99.90
15426;DHT22;7812;50.072;7.036;2023-08-21T08:51:24;41.50;99.90
15426;DHT22;7812;50.072;7.036;2023-08-21T08:53:50;41.00;99.90
15426;DHT22;7812;50.072;7.036;2023-08-21T08:56:16;39.80;99.90
15426;DHT22;7812;50.072;7.036;2023-08-21T08:58:41;40.60;99.90
15426;DHT22;7812;50.072;7.036;2023-08-21T09:01:09;40.90;99.90
15426;DHT22;7812;50.072;7.036;2023-08-21T09:03:36;41.60;99.90
15426;DHT22;7812;50.072;7.036;2023-08-21T09:06:03;42.00;99.90
15426;DHT22;7812;50.072;7.036;2023-08-21T09:08:29;42.70;99.90
15426;DHT22;7812;50.072;7.036;2023-08-21T09:10:55;42.80;99.90
15426;DHT22;7812;50.072;7.036;2023-08-21T09:13:21;42.90;98.90
15426;DHT22;7812;50.072;7.036;2023-08-21T09:15:48;42.60;99.00
15426;DHT22;7812;50.072;7.036;2023-08-21T09:18:18;41.40;99.10
15426;DHT22;7812;50.072;7.036;2023-08-21T09:20:44;40.90;99.10
15426;DHT22;7812;50.072;7.036;2023-08-21T09:23:14;40.60;99.70
15426;DHT22;7812;50.072;7.036;2023-08-21T09:25:40;40.30;99.50
15426;DHT22;7812;50.072;7.036;2023-08-21T09:28:07;41.10;99.70
15426;DHT22;7812;50.072;7.036;2023-08-21T09:30:52;40.70;97.90
15426;DHT22;7812;50.072;7.036;2023-08-21T09:33:20;41.50;98.60
15426;DHT22;7812;50.072;7.036;2023-08-21T09:35:51;41.00;98.00
15426;DHT22;7812;50.072;7.036;2023-08-21T09:38:17;41.10;98.60
15426;DHT22;7812;50.072;7.036;2023-08-21T09:40:51;41.50;96.60
15426;DHT22;7812;50.072;7.036;2023-08-21T09:43:17;40.40;96.40
15426;DHT22;7812;50.072;7.036;2023-08-21T09:45:47;40.00;96.60
15426;DHT22;7812;50.072;7.036;2023-08-21T09:48:14;38.30;96.80
15426;DHT22;7812;50.072;7.036;2023-08-21T09:50:40;37.50;98.60
15426;DHT22;7812;50.072;7.036;2023-08-21T09:53:08;38.60;98.10
15426;DHT22;7812;50.072;7.036;2023-08-21T09:55:35;38.50;96.90
15426;DHT22;7812;50.072;7.036;2023-08-21T09:58:02;38.30;97.10
15426;DHT22;7812;50.072;7.036;2023-08-21T10:00:33;38.30;97.30
15426;DHT22;7812;50.072;7.036;2023-08-21T10:03:02;38.50;97.80
15426;DHT22;7812;50.072;7.036;2023-08-21T10:05:32;39.00;97.20
15426;DHT22;7812;50.072;7.036;2023-08-21T10:08:01;38.90;97.10
15426;DHT22;7812;50.072;7.036;2023-08-21T10:10:36;36.40;98.10
15426;DHT22;7812;50.072;7.036;2023-08-21T10:13:03;35.80;99.00
15426;DHT22;7812;50.072;7.036;2023-08-21T10:15:31;36.30;98.80
15426;DHT22;7812;50.072;7.036;2023-08-21T10:17:58;37.80;98.40
15426;DHT22;7812;50.072;7.036;2023-08-21T10:20:25;37.30;99.20
15426;DHT22;7812;50.072;7.036;2023-08-21T10:22:55;38.70;98.20
15426;DHT22;7812;50.072;7.036;2023-08-21T10:25:28;40.00;97.40
15426;DHT22;7812;50.072;7.036;2023-08-21T10:27:55;40.30;96.50
15426;DHT22;7812;50.072;7.036;2023-08-21T10:30:27;39.40;96.60
15426;DHT22;7812;50.072;7.036;2023-08-21T10:32:54;38.50;97.20
15426;DHT22;7812;50.072;7.036;2023-08-21T10:35:23;38.60;97.70
15426;DHT22;7812;50.072;7.036;2023-08-21T10:38:07;39.30;97.50
15426;DHT22;7812;50.072;7.036;2023-08-21T10:40:35;38.60;97.40
15426;DHT22;7812;50.072;7.036;2023-08-21T10:43:01;38.40;98.30
15426;DHT22;7812;50.072;7.036;2023-08-21T10:45:28;37.40;99.00
15426;DHT22;7812;50.072;7.036;2023-08-21T10:47:59;36.50;99.50
15426;DHT22;7812;50.072;7.036;2023-08-21T10:50:25;37.20;99.90
15426;DHT22;7812;50.072;7.036;2023-08-21T10:52:52;38.00;98.70
15426;DHT22;7812;50.072;7.036;2023-08-21T10:55:21;38.20;99.10
15426;DHT22;7812;50.072;7.036;2023-08-21T10:57:48;37.40;99.40
15426;DHT22;7812;50.072;7.036;2023-08-21T11:00:16;36.90;99.90
15426;DHT22;7812;50.072;7.036;2023-08-21T11:02:49;37.60;99.40
15426;DHT22;7812;50.072;7.036;2023-08-21T11:05:16;37.30;99.40
15426;DHT22;7812;50.072;7.036;2023-08-21T11:07:45;38.30;99.00
15426;DHT22;7812;50.072;7.036;2023-08-21T11:10:13;38.80;98.80
15426;DHT22;7812;50.072;7.036;2023-08-21T11:15:16;39.30;97.10
15426;DHT22;7812;50.072;7.036;2023-08-21T11:17:41;39.90;97.10
15426;DHT22;7812;50.072;7.036;2023-08-21T11:20:07;39.50;96.70
15426;DHT22;7812;50.072;7.036;2023-08-21T11:22:33;40.20;96.00
15426;DHT22;7812;50.072;7.036;2023-08-21T11:24:59;40.20;95.40
15426;DHT22;7812;50.072;7.036;2023-08-21T11:27:25;38.40;96.00
15426;DHT22;7812;50.072;7.036;2023-08-21T11:29:52;38.60;95.90
15426;DHT22;7812;50.072;7.036;2023-08-21T11:32:23;39.90;95.50
15426;DHT22;7812;50.072;7.036;2023-08-21T11:34:55;41.00;94.70
15426;DHT22;7812;50.072;7.036;2023-08-21T11:37:25;40.60;93.80
15426;DHT22;7812;50.072;7.036;2023-08-21T11:39:56;39.80;95.10
15426;DHT22;7812;50.072;7.036;2023-08-21T11:42:31;38.20;95.50
15426;DHT22;7812;50.072;7.036;2023-08-21T11:44:58;37.30;96.60
15426;DHT22;7812;50.072;7.036;2023-08-21T11:47:30;37.50;96.60
15426;DHT22;7812;50.072;7.036;2023-08-21T11:49:56;38.70;96.30
15426;DHT22;7812;50.072;7.036;2023-08-21T11:52:23;38.80;96.20
15426;DHT22;7812;50.072;7.036;2023-08-21T11:54:54;39.00;96.40
15426;DHT22;7812;50.072;7.036;2023-08-21T11:57:20;38.80;95.50
15426;DHT22;7812;50.072;7.036;2023-08-21T11:59:53;38.00;96.10
15426;DHT22;7812;50.072;7.036;2023-08-21T12:02:27;38.20;96.40
15426;DHT22;7812;50.072;7.036;2023-08-21T12:05:06;38.60;95.50
15426;DHT22;7812;50.072;7.036;2023-08-21T12:07:35;39.30;95.20
15426;DHT22;7812;50.072;7.036;2023-08-21T12:10:01;39.10;95.00
15426;DHT22;7812;50.072;7.036;2023-08-21T12:12:27;38.50;95.00
15426;DHT22;7812;50.072;7.036;2023-08-21T12:14:52;37.60;94.60
15426;DHT22;7812;50.072;7.036;2023-08-21T12:17:18;37.60;95.30
15426;DHT22;7812;50.072;7.036;2023-08-21T12:19:44;38.40;94.70
15426;DHT22;7812;50.072;7.036;2023-08-21T12:22:10;38.80;94.30
15426;DHT22;7812;50.072;7.036;2023-08-21T12:24:35;38.50;94.40
15426;DHT22;7812;50.072;7.036;2023-08-21T12:27:05;37.60;94.00
15426;DHT22;7812;50.072;7.036;2023-08-21T12:29:32;37.80;93.80
15426;DHT22;7812;50.072;7.036;2023-08-21T12:31:59;38.20;94.10
15426;DHT22;7812;50.072;7.036;2023-08-21T12:34:24;37.60;94.20
15426;DHT22;7812;50.072;7.036;2023-08-21T12:36:51;37.20;93.60
15426;DHT22;7812;50.072;7.036;2023-08-21T12:39:17;37.40;94.30
15426;DHT22;7812;50.072;7.036;2023-08-21T12:41:43;38.20;93.80
15426;DHT22;7812;50.072;7.036;2023-08-21T12:44:09;38.80;94.10
15426;DHT22;7812;50.072;7.036;2023-08-21T12:46:35;38.00;94.30
15426;DHT22;7812;50.072;7.036;2023-08-21T12:49:01;37.90;95.00
15426;DHT22;7812;50.072;7.036;2023-08-21T12:51:28;37.70;94.50
15426;DHT22;7812;50.072;7.036;2023-08-21T12:53:54;37.30;95.00
15426;DHT22;7812;50.072;7.036;2023-08-21T12:56:20;37.60;94.90
15426;DHT22;7812;50.072;7.036;2023-08-21T12:58:46;37.00;95.30
15426;DHT22;7812;50.072;7.036;2023-08-21T13:01:12;36.60;95.80
15426;DHT22;7812;50.072;7.036;2023-08-21T13:03:38;36.90;95.70
15426;DHT22;7812;50.072;7.036;2023-08-21T13:06:04;37.00;94.10
15426;DHT22;7812;50.072;7.036;2023-08-21T13:08:30;36.60;94.50
15426;DHT22;7812;50.072;7.036;2023-08-21T13:10:56;36.30;95.10
15426;DHT22;7812;50.072;7.036;2023-08-21T13:13:21;35.60;95.50
15426;DHT22;7812;50.072;7.036;2023-08-21T13:15:47;34.80;95.70
15426;DHT22;7812;50.072;7.036;2023-08-21T13:18:13;34.20;96.40
15426;DHT22;7812;50.072;7.036;2023-08-21T13:20:43;34.20;96.30
15426;DHT22;7812;50.072;7.036;2023-08-21T13:23:09;33.50;97.50
15426;DHT22;7812;50.072;7.036;2023-08-21T13:25:34;33.20;97.50
15426;DHT22;7812;50.072;7.036;2023-08-21T13:28:02;33.60;97.10
15426;DHT22;7812;50.072;7.036;2023-08-21T13:30:29;34.20;96.40
15426;DHT22;7812;50.072;7.036;2023-08-21T13:32:55;34.80;96.80
15426;DHT22;7812;50.072;7.036;2023-08-21T13:35:21;35.00;96.80
15426;DHT22;7812;50.072;7.036;2023-08-21T13:37:48;34.90;96.90
15426;DHT22;7812;50.072;7.036;2023-08-21T13:40:13;34.50;97.20
15426;DHT22;7812;50.072;7.036;2023-08-21T13:42:46;34.30;97.70
15426;DHT22;7812;50.072;7.036;2023-08-21T13:45:13;34.00;97.20
15426;DHT22;7812;50.072;7.036;2023-08-21T13:47:49;33.70;97.80
15426;DHT22;7812;50.072;7.036;2023-08-21T13:50:16;33.90;97.20
15426;DHT22;7812;50.072;7.036;2023-08-21T13:52:43;33.80;98.30
15426;DHT22;7812;50.072;7.036;2023-08-21T13:55:09;33.40;98.80
15426;DHT22;7812;50.072;7.036;2023-08-21T13:57:36;33.00;99.20
15426;DHT22;7812;50.072;7.036;2023-08-21T14:00:04;32.70;98.70
15426;DHT22;7812;50.072;7.036;2023-08-21T14:02:34;32.40;99.00
15426;DHT22;7812;50.072;7.036;2023-08-21T14:05:01;32.30;99.10
15426;DHT22;7812;50.072;7.036;2023-08-21T14:07:28;31.90;99.90
15426;DHT22;7812;50.072;7.036;2023-08-21T14:09:54;31.80;99.90
15426;DHT22;7812;50.072;7.036;2023-08-21T14:12:20;31.80;99.90
15426;DHT22;7812;50.072;7.036;2023-08-21T14:14:45;31.60;99.90
15426;DHT22;7812;50.072;7.036;2023-08-21T14:17:11;31.50;99.90
15426;DHT22;7812;50.072;7.036;2023-08-21T14:19:37;31.50;99.90
15426;DHT22;7812;50.072;7.036;2023-08-21T14:22:02;31.50;99.90
15426;DHT22;7812;50.072;7.036;2023-08-21T14:24:28;31.60;99.90
15426;DHT22;7812;50.072;7.036;2023-08-21T14:26:54;31.70;99.90
15426;DHT22;7812;50.072;7.036;2023-08-21T14:29:20;31.60;99.90
15426;DHT22;7812;50.072;7.036;2023-08-21T14:31:46;31.70;99.90
15426;DHT22;7812;50.072;7.036;2023-08-21T14:34:13;31.80;99.90
15426;DHT22;7812;50.072;7.036;2023-08-21T14:36:38;31.70;99.90
15426;DHT22;7812;50.072;7.036;2023-08-21T14:39:04;31.60;99.90
15426;DHT22;7812;50.072;7.036;2023-08-21T14:41:31;31.50;99.90
15426;DHT22;7812;50.072;7.036;2023-08-21T14:43:58;31.30;99.90
15426;DHT22;7812;50.072;7.036;2023-08-21T14:46:24;31.40;99.90
15426;DHT22;7812;50.072;7.036;2023-08-21T14:48:49;31.40;99.90
15426;DHT22;7812;50.072;7.036;2023-08-21T14:51:15;31.40;99.90
15426;DHT22;7812;50.072;7.036;2023-08-21T14:53:41;31.50;99.90
15426;DHT22;7812;50.072;7.036;2023-08-21T14:56:06;31.60;99.90
15426;DHT22;7812;50.072;7.036;2023-08-21T14:58:32;31.30;99.90
15426;DHT22;7812;50.072;7.036;2023-08-21T15:00:58;31.00;99.90
15426;DHT22;7812;50.072;7.036;2023-08-21T15:03:23;30.90;99.90
15426;DHT22;7812;50.072;7.036;2023-08-21T15:05:49;30.90;99.90
15426;DHT22;7812;50.072;7.036;2023-08-21T15:08:14;30.90;99.90
15426;DHT22;7812;50.072;7.036;2023-08-21T15:10:40;31.20;99.90
15426;DHT22;7812;50.072;7.036;2023-08-21T15:13:06;30.90;99.90
15426;DHT22;7812;50.072;7.036;2023-08-21T15:15:31;30.40;99.90
15426;DHT22;7812;50.072;7.036;2023-08-21T15:17:57;30.50;99.90
15426;DHT22;7812;50.072;7.036;2023-08-21T15:20:25;30.70;99.90
15426;DHT22;7812;50.072;7.036;2023-08-21T15:22:50;31.00;99.90
15426;DHT22;7812;50.072;7.036;2023-08-21T15:25:16;31.10;99.90
15426;DHT22;7812;50.072;7.036;2023-08-21T15:27:42;31.20;99.90
15426;DHT22;7812;50.072;7.036;2023-08-21T15:30:08;31.10;99.90
15426;DHT22;7812;50.072;7.036;2023-08-21T15:32:34;31.00;99.90
15426;DHT22;7812;50.072;7.036;2023-08-21T15:35:00;30.90;99.90
15426;DHT22;7812;50.072;7.036;2023-08-21T15:37:30;30.80;99.90
15426;DHT22;7812;50.072;7.036;2023-08-21T15:39:58;30.90;99.90
15426;DHT22;7812;50.072;7.036;2023-08-21T15:42:24;30.80;99.90
15426;DHT22;7812;50.072;7.036;2023-08-21T15:44:49;30.80;99.90
15426;DHT22;7812;50.072;7.036;2023-08-21T15:47:15;30.90;99.90